Time;durP1;ratioP1;P1;durP2;ratioP2;P2;SDS_P1;SDS_P2;PMS_P1;PMS_P2;Temp;Humidity;BMP_temperature;BMP_pressure;BME280_temperature;BME280_humidity;BME280_pressure;Samples;Min_cycle;Max_cycle;Signal;HPM_P1;HPM_P2
2023/08/28 00:02:21;;;;;;;18.13;10.50;;;;;;;;;;5075212;28;20013;-81
2023/08/28 00:04:48;;;;;;;17.38;10.05;;;;;;;;;;5074952;28;20035;-80
2023/08/28 00:07:14;;;;;;;14.10;9.57;;;;;;;;;;5075444;28;20074;-82
2023/08/28 00:09:40;;;;;;;15.52;10.10;;;;;;;;;;5075163;28;20046;-83
2023/08/28 00:15:25;;;;;;;19.90;9.75;;;;;;;;;;5075577;28;20153;-85
2023/08/28 00:17:51;;;;;;;16.95;10.60;;;;;;;;;;5057094;28;20032;-84
2023/08/28 00:20:17;;;;;;;16.38;10.13;;;;;;;;;;5074965;28;20028;-85
2023/08/28 00:22:43;;;;;;;15.18;10.13;;;;;;;;;;5074979;28;20423;-81
2023/08/28 00:25:09;;;;;;;13.73;10.20;;;;;;;;;;5074810;28;20029;-84
2023/08/28 00:27:36;;;;;;;14.10;9.98;;;;;;;;;;5056970;28;20054;-84
2023/08/28 00:30:03;;;;;;;13.52;10.13;;;;;;;;;;5074913;28;20529;-86
2023/08/28 00:32:30;;;;;;;16.42;10.15;;;;;;;;;;5074498;28;20083;-82
2023/08/28 00:34:56;;;;;;;16.55;10.25;;;;;;;;;;5056953;28;20024;-84
2023/08/28 00:37:22;;;;;;;16.75;10.05;;;;;;;;;;5074638;28;20486;-82
2023/08/28 00:39:48;;;;;;;21.02;11.15;;;;;;;;;;5056807;28;20478;-84
2023/08/28 00:42:53;;;;;;;16.75;10.77;;;;;;;;;;5056756;28;20063;-84
2023/08/28 00:45:19;;;;;;;17.92;11.10;;;;;;;;;;5074425;28;20032;-84
2023/08/28 00:47:46;;;;;;;14.70;10.52;;;;;;;;;;5057108;28;20023;-86
2023/08/28 00:50:12;;;;;;;17.85;10.90;;;;;;;;;;5074696;28;20028;-85
2023/08/28 00:52:39;;;;;;;17.17;11.05;;;;;;;;;;5074331;28;20554;-84
2023/08/28 00:55:05;;;;;;;16.17;11.23;;;;;;;;;;5074189;28;20515;-84
2023/08/28 00:57:50;;;;;;;16.20;11.05;;;;;;;;;;5074390;28;20051;-86
2023/08/28 01:00:16;;;;;;;19.08;10.82;;;;;;;;;;5056997;28;20120;-84
2023/08/28 01:02:43;;;;;;;18.80;11.07;;;;;;;;;;5056749;28;20043;-83
2023/08/28 01:05:09;;;;;;;18.00;11.40;;;;;;;;;;5074573;28;20588;-87
2023/08/28 01:07:40;;;;;;;16.52;10.40;;;;;;;;;;5056703;28;20066;-86
2023/08/28 01:10:35;;;;;;;14.85;10.65;;;;;;;;;;5074421;28;20436;-86
2023/08/28 01:16:13;;;;;;;16.35;11.18;;;;;;;;;;5032485;28;20426;-83
2023/08/28 01:18:40;;;;;;;17.92;11.02;;;;;;;;;;5032403;28;20139;-85
2023/08/28 01:21:06;;;;;;;17.00;10.52;;;;;;;;;;5016148;28;20017;-86
2023/08/28 01:23:33;;;;;;;18.63;10.65;;;;;;;;;;5015128;28;20124;-85
2023/08/28 01:25:59;;;;;;;15.82;10.57;;;;;;;;;;5015021;28;20060;-84
2023/08/28 01:28:25;;;;;;;16.67;10.55;;;;;;;;;;5032352;28;20056;-86
2023/08/28 01:30:53;;;;;;;14.52;10.57;;;;;;;;;;5031753;28;20037;-87
2023/08/28 01:33:19;;;;;;;15.70;10.27;;;;;;;;;;5031997;28;20124;-85
2023/08/28 01:35:47;;;;;;;16.92;10.80;;;;;;;;;;5032242;28;20044;-85
2023/08/28 01:38:24;;;;;;;14.32;10.48;;;;;;;;;;5032016;28;20025;-86
2023/08/28 01:40:56;;;;;;;17.58;10.95;;;;;;;;;;5032155;28;20472;-84
2023/08/28 01:43:44;;;;;;;14.23;10.13;;;;;;;;;;5014841;28;20128;-84
2023/08/28 01:46:11;;;;;;;17.17;10.88;;;;;;;;;;5031934;28;20036;-86
2023/08/28 01:48:42;;;;;;;15.50;10.95;;;;;;;;;;5039416;28;20037;-86
2023/08/28 01:51:08;;;;;;;16.02;11.23;;;;;;;;;;5073113;28;20112;-86
2023/08/28 01:53:35;;;;;;;17.13;10.45;;;;;;;;;;5073012;28;20031;-85
2023/08/28 01:56:10;;;;;;;15.35;10.43;;;;;;;;;;5072947;28;20111;-81
2023/08/28 01:58:38;;;;;;;16.05;10.73;;;;;;;;;;5054542;28;20043;-80
2023/08/28 02:01:04;;;;;;;15.55;10.73;;;;;;;;;;5072431;28;20027;-81
2023/08/28 02:03:30;;;;;;;14.70;10.80;;;;;;;;;;5054118;28;20119;-81
2023/08/28 02:05:56;;;;;;;16.80;10.98;;;;;;;;;;5054717;28;20080;-82
2023/08/28 02:08:22;;;;;;;16.98;11.30;;;;;;;;;;5072476;28;20024;-81
2023/08/28 02:10:48;;;;;;;15.25;10.75;;;;;;;;;;5054157;28;20126;-80
2023/08/28 02:13:14;;;;;;;18.40;10.80;;;;;;;;;;5054112;28;20456;-81
2023/08/28 02:15:40;;;;;;;18.25;10.63;;;;;;;;;;5072824;28;20024;-82
2023/08/28 02:18:07;;;;;;;20.73;11.25;;;;;;;;;;5054250;28;20402;-83
2023/08/28 02:20:33;;;;;;;16.55;10.85;;;;;;;;;;5054508;28;20093;-81
2023/08/28 02:22:59;;;;;;;16.20;10.82;;;;;;;;;;5072386;28;20027;-80
2023/08/28 02:25:25;;;;;;;18.45;11.27;;;;;;;;;;5054308;28;20116;-81
2023/08/28 02:31:09;;;;;;;16.38;11.18;;;;;;;;;;5076182;28;20055;-80
2023/08/28 02:33:35;;;;;;;17.98;11.50;;;;;;;;;;5058418;28;20432;-83
2023/08/28 02:36:02;;;;;;;16.05;11.30;;;;;;;;;;5076281;28;20033;-82
2023/08/28 02:38:28;;;;;;;17.20;11.20;;;;;;;;;;5076210;28;20012;-79
2023/08/28 02:41:02;;;;;;;16.23;11.27;;;;;;;;;;5076202;28;20032;-80
2023/08/28 02:43:28;;;;;;;14.60;10.55;;;;;;;;;;5058523;28;20031;-81
2023/08/28 02:45:54;;;;;;;15.90;11.10;;;;;;;;;;5058198;28;20501;-81
2023/08/28 02:48:20;;;;;;;15.60;11.07;;;;;;;;;;5057960;28;20029;-79
2023/08/28 02:50:49;;;;;;;16.77;10.98;;;;;;;;;;5076198;28;20466;-80
2023/08/28 02:53:15;;;;;;;17.58;11.15;;;;;;;;;;5058365;28;20128;-81
2023/08/28 02:55:42;;;;;;;16.40;11.25;;;;;;;;;;5076174;28;20532;-82
2023/08/28 02:58:08;;;;;;;18.40;11.63;;;;;;;;;;5057858;28;20028;-82
2023/08/28 03:00:37;;;;;;;16.67;11.55;;;;;;;;;;5075698;28;20031;-80
2023/08/28 03:03:04;;;;;;;18.38;11.43;;;;;;;;;;5076252;28;20162;-82
2023/08/28 03:05:30;;;;;;;18.67;11.10;;;;;;;;;;5076046;28;20347;-80
2023/08/28 03:07:56;;;;;;;18.42;11.50;;;;;;;;;;5075271;28;20020;-80
2023/08/28 03:10:23;;;;;;;19.05;11.32;;;;;;;;;;5075683;28;20482;-81
2023/08/28 03:12:49;;;;;;;19.40;11.52;;;;;;;;;;5057786;28;20028;-81
2023/08/28 03:15:15;;;;;;;13.95;10.80;;;;;;;;;;5075875;28;20107;-83
2023/08/28 03:17:41;;;;;;;14.07;10.98;;;;;;;;;;5075729;28;20033;-84
2023/08/28 03:20:09;;;;;;;14.73;10.98;;;;;;;;;;5057519;28;20033;-81
2023/08/28 03:22:35;;;;;;;14.30;10.50;;;;;;;;;;5057747;28;20029;-83
2023/08/28 03:25:01;;;;;;;16.98;11.70;;;;;;;;;;5057746;28;20035;-82
2023/08/28 03:27:27;;;;;;;17.35;11.60;;;;;;;;;;5075302;28;20028;-83
2023/08/28 03:29:53;;;;;;;19.88;11.80;;;;;;;;;;5075875;28;20025;-82
2023/08/28 03:32:19;;;;;;;16.38;11.93;;;;;;;;;;5075436;28;20059;-82
2023/08/28 03:34:45;;;;;;;17.35;12.23;;;;;;;;;;5075442;28;20039;-81
2023/08/28 03:37:11;;;;;;;16.95;11.90;;;;;;;;;;5075086;28;20024;-81
2023/08/28 03:39:38;;;;;;;19.17;12.35;;;;;;;;;;5056724;28;20023;-83
2023/08/28 03:42:04;;;;;;;17.50;12.23;;;;;;;;;;5057144;28;20051;-80
2023/08/28 03:44:30;;;;;;;18.30;12.15;;;;;;;;;;5075601;28;20045;-83
2023/08/28 03:46:56;;;;;;;17.98;12.00;;;;;;;;;;5057052;28;20553;-82
2023/08/28 03:49:22;;;;;;;18.88;12.07;;;;;;;;;;5056569;28;20482;-79
2023/08/28 03:51:48;;;;;;;18.08;12.88;;;;;;;;;;5056800;28;20032;-81
2023/08/28 03:54:14;;;;;;;20.83;13.23;;;;;;;;;;5056950;28;20028;-81
2023/08/28 03:56:40;;;;;;;21.95;12.75;;;;;;;;;;5057062;28;20052;-80
2023/08/28 03:59:07;;;;;;;21.05;12.85;;;;;;;;;;5056988;28;20037;-82
2023/08/28 04:01:33;;;;;;;17.10;12.65;;;;;;;;;;5056836;28;20073;-81
2023/08/28 04:04:00;;;;;;;18.10;12.73;;;;;;;;;;5074694;28;20016;-78
2023/08/28 04:06:26;;;;;;;21.35;12.20;;;;;;;;;;5074495;28;20036;-79
2023/08/28 04:08:52;;;;;;;18.40;12.82;;;;;;;;;;5074612;28;20025;-83
2023/08/28 04:11:18;;;;;;;18.67;12.25;;;;;;;;;;5056745;28;20043;-84
2023/08/28 04:13:44;;;;;;;17.77;12.55;;;;;;;;;;5074575;28;20074;-80
2023/08/28 04:16:10;;;;;;;17.40;12.02;;;;;;;;;;5074816;28;20032;-80
2023/08/28 04:18:36;;;;;;;20.33;12.45;;;;;;;;;;5056590;28;20029;-79
2023/08/28 04:21:03;;;;;;;18.17;12.30;;;;;;;;;;5074284;28;20028;-80
2023/08/28 04:23:30;;;;;;;17.63;12.52;;;;;;;;;;5074501;28;20027;-82
2023/08/28 04:25:56;;;;;;;17.70;12.52;;;;;;;;;;5074319;28;20048;-83
2023/08/28 04:28:22;;;;;;;18.30;12.43;;;;;;;;;;5074411;28;20027;-81
2023/08/28 04:30:48;;;;;;;28.50;12.65;;;;;;;;;;5056281;28;20382;-80
2023/08/28 04:33:15;;;;;;;19.33;12.90;;;;;;;;;;5056192;28;20032;-81
2023/08/28 04:35:41;;;;;;;20.02;11.98;;;;;;;;;;5074018;28;20425;-80
2023/08/28 04:38:07;;;;;;;15.65;12.32;;;;;;;;;;5056538;28;20028;-81
2023/08/28 04:40:33;;;;;;;20.10;12.77;;;;;;;;;;5075848;28;20033;-85
2023/08/28 04:43:00;;;;;;;21.63;12.82;;;;;;;;;;5076243;28;20103;-85
2023/08/28 04:45:26;;;;;;;19.27;14.48;;;;;;;;;;5075690;28;20021;-86
2023/08/28 04:47:51;;;;;;;20.33;13.90;;;589.40;2432.00;;;;;;5074935;28;20085;-83
2023/08/28 04:50:17;;;;;;;21.90;14.15;;;;;;;;;;5074744;28;20029;-80
2023/08/28 04:52:43;;;;;;;17.80;13.07;;;;;;;;;;5057359;28;20033;-79
2023/08/28 04:55:09;;;;;;;19.38;13.40;;;;;;;;;;5075719;28;20490;-81
2023/08/28 04:57:38;;;;;;;21.10;13.10;;;;;;;;;;5075459;28;20039;-84
2023/08/28 05:00:05;;;;;;;19.38;12.50;;;614.50;2432.00;;;;;;5075723;28;20029;-85
2023/08/28 05:02:31;;;;;;;18.42;12.73;;;;;;;;;;5075844;28;20081;-81
2023/08/28 05:04:57;;;;;;;20.75;12.80;;;614.70;2432.00;;;;;;5075540;28;20021;-81
2023/08/28 05:07:23;;;;;;;17.00;12.65;;;614.80;2432.00;;;;;;5057594;28;20032;-82
2023/08/28 05:09:49;;;;;;;19.05;12.80;;;;;;;;;;5075075;28;20032;-82
2023/08/28 05:12:14;;;;;;;18.15;11.77;;;615.00;2432.00;;;;;;5058739;28;20024;-88
2023/08/28 05:14:40;;;;;;;17.95;11.90;;;614.90;2432.00;;;;;;5076482;28;20044;-86
2023/08/28 05:17:06;;;;;;;17.30;12.43;;;615.20;2432.00;;;;;;5075348;28;20096;-80
2023/08/28 05:19:32;;;;;;;18.83;12.32;;;615.20;2432.00;;;;;;5075091;28;20037;-82
2023/08/28 05:22:00;;;;;;;18.23;12.05;;;615.30;2432.00;;;;;;5056055;28;20044;-85
2023/08/28 05:24:26;;;;;;;20.88;14.27;;;;;;;;;;5058455;28;20025;-87
2023/08/28 05:26:52;;;;;;;20.90;15.30;;;;;;;;;;5076232;28;20020;-88
2023/08/28 05:29:18;;;;;;;16.05;13.70;;;;;;;;;;5076036;28;20489;-86
2023/08/28 05:31:45;;;;;;;18.40;12.63;;;;;;;;;;5058033;28;20052;-86
2023/08/28 05:34:12;;;;;;;18.90;11.82;;;;;;;;;;5058135;28;20031;-86
2023/08/28 05:36:39;;;;;;;16.10;11.40;;;;;;;;;;5058438;28;20371;-87
2023/08/28 05:39:08;;;;;;;18.17;12.70;;;;;;;;;;5058555;28;20020;-87
2023/08/28 05:41:34;;;;;;;17.10;11.57;;;;;;;;;;5076014;28;20036;-85
2023/08/28 05:44:00;;;;;;;15.68;11.32;;;;;;;;;;5075971;28;20016;-88
2023/08/28 05:46:26;;;;;;;16.00;11.88;;;;;;;;;;5058190;28;20028;-89
2023/08/28 05:48:52;;;;;;;16.20;11.32;;;;;;;;;;5058432;28;20481;-88
2023/08/28 05:51:18;;;;;;;17.23;10.98;;;;;;;;;;5075474;28;20029;-88
2023/08/28 05:53:45;;;;;;;15.95;11.75;;;666.20;2432.00;;;;;;5074666;28;20025;-87
2023/08/28 05:56:11;;;;;;;17.13;11.40;;;666.20;2432.00;;;;;;5074554;28;20039;-88
2023/08/28 05:58:37;;;;;;;15.65;11.23;;;;;;;;;;5074680;28;20054;-90
2023/08/28 06:01:03;;;;;;;15.82;11.18;;;;;;;;;;5073837;28;20025;-88
2023/08/28 06:03:29;;;;;;;17.30;10.90;;;;;;;;;;5075858;28;20070;-88
2023/08/28 06:05:55;;;;;;;17.67;11.65;;;;;;;;;;5058187;28;20028;-88
2023/08/28 06:08:21;;;;;;;17.98;11.07;;;;;;;;;;5076870;28;20071;-87
2023/08/28 06:10:49;;;;;;;17.63;11.02;;;;;;;;;;5057534;28;20032;-88
2023/08/28 06:16:18;;;;;;;15.55;10.63;;;;;;;;;;5074803;28;20024;-88
2023/08/28 06:18:46;;;;;;;18.25;11.45;;;;;;;;;;5075035;28;20108;-89
2023/08/28 06:21:12;;;;;;;15.20;10.68;;;;;;;;;;5057654;28;20017;-88
2023/08/28 06:23:38;;;;;;;15.32;10.50;;;;;;;;;;5057480;28;20052;-88
2023/08/28 06:26:04;;;;;;;18.58;11.00;;;;;;;;;;5075020;28;20411;-86
2023/08/28 06:28:33;;;;;;;17.23;11.27;;;;;;;;;;5056751;28;20028;-88
2023/08/28 06:30:59;;;;;;;17.92;10.25;;;;;;;;;;5074684;28;20040;-86
2023/08/28 06:33:25;;;;;;;18.83;10.15;;;;;;;;;;5074522;28;20037;-84
2023/08/28 06:35:55;;;;;;;14.50;10.13;;;;;;;;;;5056586;28;20024;-81
2023/08/28 06:38:21;;;;;;;16.45;10.10;;;;;;;;;;5055493;28;20043;-84
2023/08/28 06:40:50;;;;;;;17.65;10.63;;;;;;;;;;5056238;28;20040;-81
2023/08/28 06:43:17;;;;;;;15.93;10.35;;;;;;;;;;5055915;28;20044;-83
2023/08/28 06:45:43;;;;;;;16.75;10.80;;;;;;;;;;5057048;28;20029;-88
2023/08/28 06:48:09;;;;;;;16.05;10.20;;;;;;;;;;5073892;28;20021;-83
2023/08/28 06:50:35;;;;;;;15.52;9.88;;;;;;;;;;5055882;28;20100;-81
2023/08/28 06:53:01;;;;;;;20.00;10.88;;;;;;;;;;5075150;28;20029;-90
2023/08/28 06:55:27;;;;;;;18.60;10.57;;;;;;;;;;5075861;28;20020;-89
2023/08/28 06:57:54;;;;;;;20.42;10.40;;;;;;;;;;5074906;28;20047;-87
2023/08/28 07:00:20;;;;;;;15.27;10.23;;;;;;;;;;5057371;28;20062;-86
2023/08/28 07:02:46;;;;;;;16.98;10.52;;;;;;;;;;5074275;28;20032;-88
2023/08/28 07:05:13;;;;;;;20.20;10.18;;;;;;;;;;5056937;28;20027;-86
2023/08/28 07:07:39;;;;;;;17.45;10.52;;;;;;;;;;5056494;28;20035;-87
2023/08/28 07:10:05;;;;;;;14.55;10.63;;;;;;;;;;5056830;28;20029;-88
2023/08/28 07:12:33;;;;;;;15.23;10.57;;;;;;;;;;5075132;28;20029;-88
2023/08/28 07:15:12;;;;;;;16.02;10.95;;;;;;;;;;5077514;28;20021;-88
2023/08/28 07:17:38;;;;;;;15.32;10.50;;;;;;;;;;5059785;28;20059;-89
2023/08/28 07:20:06;;;;;;;18.13;11.15;;;;;;;;;;5060816;28;20523;-87
2023/08/28 07:22:32;;;;;;;21.35;11.65;;;;;;;;;;5060832;28;20115;-89
2023/08/28 07:24:58;;;;;;;19.30;11.98;;;;;;;;;;5060159;28;20035;-88
2023/08/28 07:27:44;;;;;;;20.48;12.05;;;;;;;;;;5078024;28;20480;-86
2023/08/28 07:30:11;;;;;;;16.90;11.60;;;;;;;;;;5061068;28;20024;-84
2023/08/28 07:32:37;;;;;;;17.45;11.60;;;;;;;;;;5061309;28;20053;-84
2023/08/28 07:35:05;;;;;;;15.93;11.27;;;;;;;;;;5080806;28;20072;-90
2023/08/28 07:37:31;;;;;;;16.95;10.98;;;;;;;;;;5078758;28;20031;-90
2023/08/28 07:39:59;;;;;;;17.13;10.80;;;;;;;;;;5061508;28;20031;-83
2023/08/28 07:42:26;;;;;;;13.98;10.43;;;;;;;;;;5078862;28;20036;-83
2023/08/28 07:44:52;;;;;;;16.77;10.32;;;;;;;;;;5078327;28;20024;-87
2023/08/28 07:47:19;;;;;;;17.52;10.50;;;;;;;;;;5078262;28;20035;-87
2023/08/28 07:49:45;;;;;;;15.23;10.43;;;;;;;;;;5077838;28;20028;-84
2023/08/28 07:52:11;;;;;;;15.68;10.13;;;;;;;;;;5077821;28;20385;-83
2023/08/28 07:54:37;;;;;;;15.07;9.80;;;;;;;;;;5077204;28;20024;-88
2023/08/28 07:57:07;;;;;;;15.30;10.55;;;;;;;;;;5077786;28;20025;-87
2023/08/28 08:00:13;;;;;;;14.20;10.30;;;;;;;;;;5059787;28;20024;-84
2023/08/28 08:02:40;;;;;;;14.55;10.27;;;;;;;;;;5076947;28;20475;-84
2023/08/28 08:05:10;;;;;;;20.70;10.93;;;;;;;;;;5061419;28;20043;-86
2023/08/28 08:07:37;;;;;;;19.30;10.70;;;;;;;;;;5065417;28;20035;-88
2023/08/28 08:10:04;;;;;;;18.48;10.98;;;;;;;;;;5082996;28;20025;-87
2023/08/28 08:15:47;;;;;;;21.10;10.98;;;;;;;;;;5080568;28;20039;-89
2023/08/28 08:18:14;;;;;;;21.50;11.40;;;;;;;;;;5062851;28;20122;-88
2023/08/28 08:20:40;;;;;;;14.98;10.80;;;;;;;;;;5059166;28;20032;-87
2023/08/28 08:23:06;;;;;;;17.83;11.00;;;;;;;;;;5058399;28;20095;-88
2023/08/28 08:25:33;;;;;;;17.80;11.20;;;;;;;;;;5077268;28;20052;-87
2023/08/28 08:28:17;;;;;;;17.95;11.35;;;;;;;;;;5077311;28;20443;-86
2023/08/28 08:30:43;;;;;;;20.08;11.43;;;;;;;;;;5076869;28;20033;-89
2023/08/28 08:33:09;;;;;;;22.48;11.43;;;;;;;;;;5058162;28;20048;-87
2023/08/28 08:35:35;;;;;;;19.30;11.88;;;;;;;;;;5077184;28;20024;-87
2023/08/28 08:38:01;;;;;;;20.05;12.23;;;;;;;;;;5058820;28;20041;-85
2023/08/28 08:40:28;;;;;;;19.08;11.75;;;;;;;;;;5059039;28;20075;-84
2023/08/28 08:46:10;;;;;;;16.75;11.88;;;;;;;;;;5076113;28;20536;-85
2023/08/28 08:48:38;;;;;;;19.25;11.60;;;;;;;;;;5058365;28;20085;-86
2023/08/28 08:51:07;;;;;;;17.45;10.95;;;;;;;;;;5075995;28;20466;-85
2023/08/28 08:53:52;;;;;;;18.00;11.70;;;;;;;;;;5058517;28;20025;-87
2023/08/28 08:56:21;;;;;;;17.08;10.93;;;;;;;;;;5076602;28;20016;-87
2023/08/28 08:58:47;;;;;;;18.23;11.75;;;;;;;;;;5076113;28;20025;-84
2023/08/28 09:01:13;;;;;;;16.50;11.23;;;;;;;;;;5075861;28;20066;-86
2023/08/28 09:03:40;;;;;;;18.58;11.05;;;;;;;;;;5076113;28;20166;-87
2023/08/28 09:06:07;;;;;;;18.83;11.52;;;;;;;;;;5075652;28;20024;-87
2023/08/28 09:08:37;;;;;;;17.25;10.93;;;;;;;;;;5076326;28;20044;-87
2023/08/28 09:11:08;;;;;;;19.02;10.88;;;;;;;;;;5076171;28;20032;-87
2023/08/28 09:13:35;;;;;;;15.52;10.98;;;;;;;;;;5075570;28;20044;-83
2023/08/28 09:16:04;;;;;;;20.55;10.88;;;;;;;;;;5077800;28;20115;-86
2023/08/28 09:18:30;;;;;;;16.40;11.15;;;;;;;;;;5077265;28;20529;-84
2023/08/28 09:21:09;;;;;;;16.73;10.70;;;;;;;;;;5058693;28;20039;-86
2023/08/28 09:23:41;;;;;;;19.48;10.88;;;;;;;;;;5076903;28;20021;-85
2023/08/28 09:26:07;;;;;;;17.80;11.10;;;;;;;;;;5058885;28;20048;-86
2023/08/28 09:29:12;;;;;;;17.15;11.20;;;;;;;;;;5059251;28;20066;-82
2023/08/28 09:31:42;;;;;;;19.02;10.52;;;;;;;;;;5035734;28;20060;-84
2023/08/28 09:34:11;;;;;;;22.30;10.70;;;;;;;;;;5036549;28;20133;-83
2023/08/28 09:36:40;;;;;;;23.83;11.13;;;;;;;;;;5019824;28;20502;-84
2023/08/28 09:39:06;;;;;;;16.15;10.82;;;;;;;;;;5036595;28;20028;-81
2023/08/28 09:41:41;;;;;;;16.50;10.25;;;;;;;;;;5034139;28;20026;-80
2023/08/28 09:44:07;;;;;;;21.10;11.00;;;;;;;;;;5019759;28;20033;-84
2023/08/28 09:46:36;;;;;;;18.13;10.40;;;;;;;;;;5017223;28;20487;-84
2023/08/28 09:49:02;;;;;;;16.33;10.45;;;;;;;;;;5034711;28;20038;-81
2023/08/28 09:51:44;;;;;;;15.25;10.05;;;;;;;;;;5032883;28;20550;-81
2023/08/28 09:54:11;;;;;;;14.18;9.93;;;;;;;;;;5033582;28;20051;-82
2023/08/28 09:56:37;;;;;;;20.85;10.88;;;;;;;;;;5018863;28;20495;-84
2023/08/28 09:59:21;;;;;;;16.00;9.95;;;922.30;1740.80;;;;;;5036058;28;20068;-84
2023/08/28 10:01:49;;;;;;;14.55;9.82;;;921.90;1766.40;;;;;;5027823;28;20382;-85
2023/08/28 10:04:19;;;;;;;17.65;9.90;;;922.30;1740.80;;;;;;5074829;28;20154;-86
2023/08/28 10:06:49;;;;;;;15.32;9.70;;;;;;;;;;5075037;28;20024;-86
2023/08/28 10:09:18;;;;;;;18.27;10.10;;;;;;;;;;5075237;28;20029;-88
2023/08/28 10:11:45;;;;;;;18.33;9.35;;;947.40;1689.60;;;;;;5057085;28;20094;-83
2023/08/28 10:14:14;;;;;;;19.13;9.93;;;947.20;1638.40;;;;;;5075256;28;20021;-85
2023/08/28 10:16:48;;;;;;;14.77;9.43;;;922.10;1689.60;;;;;;5075129;28;20029;-84
2023/08/28 10:19:26;;;;;;;16.65;9.52;;;922.50;1664.00;;;;;;5074196;28;20075;-85
2023/08/28 10:21:52;;;;;;;15.45;9.07;;;922.50;1664.00;;;;;;5073119;28;20028;-89
2023/08/28 10:24:19;;;;;;;17.48;9.10;;;947.30;1612.80;;;;;;5055194;28;20119;-83
2023/08/28 10:26:47;;;;;;;17.30;9.35;;;922.50;1587.20;;;;;;5056804;28;20478;-83
2023/08/28 10:29:17;;;;;;;18.70;9.40;;;922.40;1587.20;;;;;;5073999;28;20041;-83
2023/08/28 10:31:43;;;;;;;15.25;9.07;;;947.80;1561.60;;;;;;5073419;28;20052;-84
2023/08/28 10:34:11;;;;;;;15.48;8.48;;;973.40;1510.40;;;;;;5074228;28;20168;-81
2023/08/28 10:36:37;;;;;;;16.10;9.00;;;;;;;;;;5074024;28;20029;-83
2023/08/28 10:39:04;;;;;;;16.50;9.07;;;;;;;;;;5073461;28;20024;-82
2023/08/28 10:41:32;;;;;;;20.27;9.10;;;;;;;;;;5056161;28;20044;-81
2023/08/28 10:43:59;;;;;;;16.48;8.77;;;;;;;;;;5074245;28;20408;-82
2023/08/28 10:46:29;;;;;;;18.85;8.40;;;;;;;;;;5055839;28;20035;-82
2023/08/28 10:48:58;;;;;;;15.18;8.15;;;;;;;;;;5074765;28;20798;-81
2023/08/28 10:51:31;;;;;;;19.23;8.35;;;;;;;;;;5077349;28;20119;-86
2023/08/28 10:53:59;;;;;;;15.27;8.38;;;;;;;;;;5059866;28;20035;-83
2023/08/28 10:56:29;;;;;;;15.35;8.75;;;;;;;;;;5059461;28;20021;-83
2023/08/28 11:02:00;;;;;;;20.60;9.10;;;;;;;;;;5078563;28;20449;-82
2023/08/28 11:04:35;;;;;;;15.27;8.35;;;;;;;;;;5061073;28;20028;-82
2023/08/28 11:07:02;;;;;;;17.50;8.70;;;;;;;;;;5078271;28;20020;-84
2023/08/28 11:09:28;;;;;;;16.75;8.75;;;;;;;;;;5079144;28;20036;-85
2023/08/28 11:12:00;;;;;;;15.05;8.80;;;;;;;;;;5060371;28;20040;-87
2023/08/28 11:14:31;;;;;;;17.58;8.27;;;;;;;;;;5078913;28;20029;-84
2023/08/28 11:17:15;;;;;;;16.55;8.25;;;;;;;;;;5061026;28;20040;-82
2023/08/28 11:19:40;;;;;;;;;;;;;;;;;;5060302;28;20032;-86
2023/08/28 11:22:07;;;;;;;13.77;7.43;;;;;;;;;;5077536;28;19911;-83
2023/08/28 11:24:34;;;;;;;18.02;7.97;;;;;;;;;;5077324;28;20025;-82
2023/08/28 11:27:00;;;;;;;15.10;7.55;;;;;;;;;;5077151;28;20024;-83
2023/08/28 11:29:26;;;;;;;13.45;8.32;;;;;;;;;;5077050;28;20017;-80
2023/08/28 11:31:52;;;;;;;15.32;7.80;;;;;;;;;;5058352;28;20048;-80
2023/08/28 11:34:19;;;;;;;16.85;7.78;;;;;;;;;;5077480;28;20080;-87
2023/08/28 11:36:47;;;;;;;14.88;7.55;;;;;;;;;;5058781;28;20035;-86
2023/08/28 11:39:23;;;;;;;15.35;7.75;;;;;;;;;;5076755;28;20092;-81
2023/08/28 11:41:53;;;;;;;13.90;8.15;;;;;;;;;;5059540;28;20017;-83
2023/08/28 11:44:20;;;;;;;19.83;8.10;;;;;;;;;;5077636;28;20165;-86
2023/08/28 11:46:49;;;;;;;12.55;8.30;;;;;;;;;;5077474;28;20021;-80
2023/08/28 11:49:15;;;;;;;12.90;7.95;;;;;;;;;;5077071;28;20024;-81
2023/08/28 11:51:44;;;;;;;16.17;8.63;;;;;;;;;;5076366;28;20093;-82
2023/08/28 11:54:10;;;;;;;15.57;9.05;;;;;;;;;;5076445;28;20023;-84
2023/08/28 11:56:38;;;;;;;16.63;8.32;;;;;;;;;;5058521;28;20398;-82
2023/08/28 11:59:05;;;;;;;13.85;7.85;;;;;;;;;;5057855;28;20021;-81
2023/08/28 12:01:31;;;;;;;15.77;7.97;;;;;;;;;;5076306;28;20028;-83
2023/08/28 12:04:06;;;;;;;16.73;8.57;;;;;;;;;;5076698;28;20020;-81
2023/08/28 12:06:43;;;;;;;15.52;7.82;;;;;;;;;;5058723;28;20039;-82
2023/08/28 12:09:12;;;;;;;16.30;7.95;;;1049.70;1280.00;;;;;;5076605;28;20113;-82
2023/08/28 12:11:39;;;;;;;16.08;7.72;;;1049.90;1228.80;;;;;;5075619;28;20445;-86
2023/08/28 12:14:36;;;;;;;15.38;8.07;;;1049.80;1203.20;;;;;;5076583;28;20017;-81
2023/08/28 12:17:01;;;;;;;15.38;8.38;;;1024.60;1305.60;;;;;;5076590;28;20047;-82
2023/08/28 12:19:28;;;;;;;15.43;8.07;;;;;;;;;;5058682;28;20025;-83
2023/08/28 12:22:05;;;;;;;17.58;8.80;;;1049.70;1331.20;;;;;;5058764;28;20029;-84
2023/08/28 12:24:31;;;;;;;19.08;8.55;;;1049.80;1331.20;;;;;;5076920;28;20045;-86
2023/08/28 12:26:57;;;;;;;13.93;8.25;;;1049.60;1305.60;;;;;;5058127;28;20047;-82
2023/08/28 12:29:25;;;;;;;14.82;8.32;;;1049.70;1280.00;;;;;;5075971;28;20025;-82
2023/08/28 12:31:51;;;;;;;13.38;7.78;;;;;;;;;;5075438;28;20057;-83
2023/08/28 12:34:18;;;;;;;14.77;7.85;;;1050.50;1254.40;;;;;;5076083;28;20029;-80
2023/08/28 12:36:46;;;;;;;14.60;8.40;;;1075.20;1203.20;;;;;;5075879;28;20034;-82
2023/08/28 12:39:21;;;;;;;15.02;8.32;;;1075.40;1203.20;;;;;;5075881;28;20024;-85
2023/08/28 12:41:50;;;;;;;19.40;8.38;;;1075.80;1280.00;;;;;;5075964;28;20029;-83
2023/08/28 12:44:35;;;;;;;12.82;7.00;;;1075.30;1254.40;;;;;;5076215;28;20108;-83
2023/08/28 12:47:02;;;;;;;14.35;7.57;;;1050.20;1126.40;;;;;;5077085;28;20466;-87
2023/08/28 12:49:28;;;;;;;14.00;6.97;;;1049.90;1126.40;;;;;;5076472;28;20055;-84
2023/08/28 12:51:54;;;;;;;16.08;6.70;;;1049.70;1126.40;;;;;;5057472;28;20068;-85
2023/08/28 12:54:21;;;;;;;16.50;7.03;;;1024.40;1100.80;;;;;;5058084;28;20048;-86
2023/08/28 12:56:52;;;;;;;16.23;6.85;;;1024.20;1100.80;;;;;;5077572;28;20021;-83
2023/08/28 12:59:23;;;;;;;17.10;7.25;;;1024.20;1100.80;;;;;;5077175;28;20028;-81
2023/08/28 13:01:50;;;;;;;17.83;7.55;;;1024.30;1100.80;;;;;;5076444;28;20304;-86
2023/08/28 13:04:16;;;;;;;16.77;7.18;;;1024.60;1100.80;;;;;;5076914;28;20020;-85
2023/08/28 13:06:42;;;;;;;18.00;7.28;;;999.30;1126.40;;;;;;5058262;28;20092;-87
2023/08/28 13:09:09;;;;;;;14.60;6.65;;;1024.30;1152.00;;;;;;5060575;28;20079;-81
2023/08/28 13:11:36;;;;;;;16.65;6.82;;;1024.10;1075.20;;;;;;5057039;28;20045;-83
2023/08/28 13:17:24;;;;;;;17.00;7.32;;;1024.10;1075.20;;;;;;5078387;28;20073;-86
2023/08/28 13:19:50;;;;;;;15.32;6.72;;;1024.30;1024.00;;;;;;5077517;28;20466;-86
2023/08/28 13:22:16;;;;;;;16.17;6.75;;;1024.00;1049.60;;;;;;5076561;28;20093;-86
2023/08/28 13:24:41;;;;;;;14.65;6.50;;;999.30;1049.60;;;;;;5058302;28;20020;-86
2023/08/28 13:27:07;;;;;;;14.70;6.40;;;999.10;1075.20;;;;;;5058187;28;20536;-83
2023/08/28 13:29:54;;;;;;;17.00;6.55;;;;;;;;;;5059041;28;20024;-83
2023/08/28 13:32:20;;;;;;;18.60;5.82;;;;;;;;;;5075326;28;20046;-83
2023/08/28 13:34:47;;;;;;;18.95;6.40;;;;;;;;;;5057256;28;20055;-88
2023/08/28 13:37:13;;;;;;;14.30;6.30;;;;;;;;;;5058317;28;20027;-87
2023/08/28 13:39:41;;;;;;;19.02;6.45;;;;;;;;;;5057396;28;20090;-82
2023/08/28 13:42:07;;;;;;;13.68;6.35;;;998.70;1075.20;;;;;;5074336;28;20078;-85
2023/08/28 13:44:51;;;;;;;17.75;6.13;;;998.50;1100.80;;;;;;5074850;28;20013;-86
2023/08/28 13:47:18;;;;;;;19.08;6.40;;;998.60;1126.40;;;;;;5074963;28;20024;-87
2023/08/28 13:49:44;;;;;;;21.02;6.40;;;973.70;1075.20;;;;;;5075288;28;20099;-88
2023/08/28 13:52:10;;;;;;;17.23;6.70;;;998.50;1126.40;;;;;;5075908;28;20470;-85
2023/08/28 13:54:37;;;;;;;14.45;6.38;;;998.50;1126.40;;;;;;5057566;28;20046;-86
2023/08/28 13:57:03;;;;;;;16.85;6.28;;;998.50;1126.40;;;;;;5074978;28;20024;-88
2023/08/28 13:59:47;;;;;;;15.85;6.32;;;998.60;1126.40;;;;;;5075740;28;20024;-89
2023/08/28 14:02:16;;;;;;;17.00;6.28;;;999.00;1100.80;;;;;;5075059;28;20032;-89
2023/08/28 14:04:43;;;;;;;18.55;6.28;;;999.00;1100.80;;;;;;5075574;28;20025;-86
2023/08/28 14:07:09;;;;;;;17.10;6.47;;;999.10;1100.80;;;;;;5057701;28;20031;-85
2023/08/28 14:09:34;;;;;;;18.05;6.10;;;999.10;1100.80;;;;;;5057604;28;20028;-86
2023/08/28 14:12:00;;;;;;;15.05;5.85;;;999.00;1075.20;;;;;;5057254;28;20465;-87
2023/08/28 14:14:26;;;;;;;15.27;5.95;;;999.30;1075.20;;;;;;5076154;28;20535;-89
2023/08/28 14:16:53;;;;;;;16.48;5.43;;;999.10;1049.60;;;;;;5057008;28;20020;-87
2023/08/28 14:19:19;;;;;;;13.43;5.72;;;999.20;1075.20;;;;;;5075254;28;20028;-86